createdAt,value
2017-09-22T00:00:48.587Z,12.70
2017-09-22T00:03:15.210Z,12.20
2017-09-22T00:05:41.817Z,11.73
2017-09-22T00:08:08.430Z,12.95
2017-09-22T00:10:35.057Z,13.40
2017-09-22T00:13:01.673Z,13.02
2017-09-22T00:15:28.287Z,12.60
2017-09-22T00:17:54.973Z,11.35
2017-09-22T00:20:21.590Z,13.73
2017-09-22T00:22:48.196Z,13.43
2017-09-22T00:25:14.822Z,14.82
2017-09-22T00:27:41.431Z,14.95
2017-09-22T00:30:08.075Z,17.10
2017-09-22T00:32:34.702Z,16.77
2017-09-22T00:35:01.318Z,17.50
2017-09-22T00:37:27.986Z,18.90
2017-09-22T00:39:54.614Z,22.08
2017-09-22T00:42:21.217Z,20.48
2017-09-22T00:44:47.825Z,20.83
2017-09-22T00:47:14.540Z,21.17
2017-09-22T00:49:41.146Z,19.70
2017-09-22T00:52:07.753Z,18.35
2017-09-22T00:54:34.379Z,19.75
2017-09-22T00:57:00.984Z,19.83
2017-09-22T00:59:27.593Z,19.58
2017-09-22T01:01:54.221Z,17.92
2017-09-22T01:04:20.830Z,20.00
2017-09-22T01:06:47.555Z,18.95
2017-09-22T01:09:14.182Z,16.05
2017-09-22T01:11:40.794Z,15.30
2017-09-22T01:14:07.402Z,14.65
2017-09-22T01:16:34.051Z,14.35
2017-09-22T01:19:00.666Z,14.38
2017-09-22T01:21:27.269Z,19.52
2017-09-22T01:23:53.898Z,21.90
2017-09-22T01:26:20.563Z,23.33
2017-09-22T01:28:47.201Z,18.08
2017-09-22T01:31:13.870Z,16.60
2017-09-22T01:33:40.482Z,20.05
2017-09-22T01:36:07.120Z,25.33
2017-09-22T01:38:33.721Z,20.65
2017-09-22T01:41:00.335Z,17.12
2017-09-22T01:43:26.951Z,20.52
2017-09-22T01:45:53.582Z,18.15
2017-09-22T01:48:20.189Z,16.00
2017-09-22T01:50:46.846Z,17.85
2017-09-22T01:53:13.473Z,15.35
2017-09-22T01:55:40.086Z,21.42
2017-09-22T01:58:06.707Z,15.07
2017-09-22T02:00:33.334Z,16.00
2017-09-22T02:03:00.050Z,16.77
2017-09-22T02:05:26.667Z,14.20
2017-09-22T02:07:53.298Z,22.27
2017-09-22T02:10:19.966Z,16.05
2017-09-22T02:12:46.578Z,18.87
2017-09-22T02:15:13.209Z,17.27
2017-09-22T02:17:39.886Z,35.67
2017-09-22T02:20:06.499Z,36.60
2017-09-22T02:22:33.135Z,35.08
2017-09-22T02:24:59.739Z,26.73
2017-09-22T02:27:26.442Z,38.50
2017-09-22T02:29:53.079Z,35.88
2017-09-22T02:32:19.735Z,36.47
2017-09-22T02:34:46.354Z,31.08
2017-09-22T02:37:12.989Z,34.30
2017-09-22T02:39:39.638Z,18.02
2017-09-22T02:42:06.246Z,26.45
2017-09-22T02:44:32.870Z,17.60
2017-09-22T02:46:59.553Z,15.18
2017-09-22T02:49:26.157Z,32.35
2017-09-22T02:51:52.790Z,27.52
2017-09-22T02:54:19.403Z,17.90
2017-09-22T02:56:46.110Z,17.23
2017-09-22T02:59:12.734Z,26.10
2017-09-22T03:01:39.351Z,27.05
2017-09-22T03:04:05.964Z,50.33
2017-09-22T03:06:32.590Z,54.10
2017-09-22T03:08:59.304Z,54.72
2017-09-22T03:11:25.914Z,26.95
2017-09-22T03:13:52.578Z,18.27
2017-09-22T03:16:19.190Z,19.80
2017-09-22T03:18:45.797Z,20.88
2017-09-22T03:21:12.430Z,29.55
2017-09-22T03:23:39.038Z,22.83
2017-09-22T03:26:05.674Z,18.80
2017-09-22T03:28:32.304Z,21.12
2017-09-22T03:30:58.911Z,20.27
2017-09-22T03:33:25.526Z,20.15
2017-09-22T03:35:52.231Z,21.10
2017-09-22T03:38:18.833Z,22.23
2017-09-22T03:40:45.506Z,15.80
2017-09-22T03:43:12.130Z,15.02
2017-09-22T03:45:38.787Z,14.60
2017-09-22T03:48:05.423Z,14.77
2017-09-22T03:50:32.162Z,14.50
2017-09-22T03:52:58.807Z,14.20
2017-09-22T03:55:25.418Z,11.65
2017-09-22T03:57:52.051Z,13.82
2017-09-22T04:00:18.662Z,14.43
2017-09-22T04:02:45.269Z,14.48
2017-09-22T04:05:11.907Z,13.52
2017-09-22T04:07:38.693Z,12.65
2017-09-22T04:10:05.633Z,13.15
2017-09-22T04:12:32.430Z,11.52
2017-09-22T04:14:59.042Z,14.95
2017-09-22T04:17:26.060Z,21.62
2017-09-22T04:19:53.518Z,19.60
2017-09-22T04:22:20.874Z,26.50
2017-09-22T04:24:47.766Z,13.85
2017-09-22T04:27:14.766Z,14.35
2017-09-22T04:29:42.225Z,20.90
2017-09-22T04:32:09.068Z,14.93
2017-09-22T04:34:36.016Z,13.13
2017-09-22T04:37:03.415Z,17.17
2017-09-22T04:39:30.828Z,28.33
2017-09-22T04:41:58.198Z,37.67
2017-09-22T04:44:25.233Z,30.52
2017-09-22T04:46:51.919Z,27.57
2017-09-22T04:49:18.569Z,12.55
2017-09-22T04:51:45.182Z,17.17
2017-09-22T04:54:11.791Z,26.80
2017-09-22T04:56:38.486Z,15.00
2017-09-22T04:59:05.125Z,36.80
2017-09-22T05:01:31.809Z,13.62
2017-09-22T05:03:58.433Z,16.10
2017-09-22T05:06:25.041Z,27.80
2017-09-22T05:08:51.649Z,14.85
2017-09-22T05:11:18.318Z,34.90
2017-09-22T05:13:44.926Z,22.70
2017-09-22T05:16:11.596Z,24.60
2017-09-22T05:18:38.230Z,21.73
2017-09-22T05:21:04.842Z,32.00
2017-09-22T05:23:31.486Z,21.52
2017-09-22T05:25:58.112Z,24.58
2017-09-22T05:28:24.734Z,30.00
2017-09-22T05:30:51.341Z,32.10
2017-09-22T05:33:17.975Z,27.60
2017-09-22T05:35:44.606Z,19.45
2017-09-22T05:38:11.227Z,24.40
2017-09-22T05:40:37.889Z,25.37
2017-09-22T05:43:04.494Z,13.60
2017-09-22T05:45:31.106Z,14.30
2017-09-22T05:47:57.807Z,14.48
2017-09-22T05:50:24.426Z,28.15
2017-09-22T05:52:51.042Z,19.23
2017-09-22T05:55:17.723Z,18.37
2017-09-22T05:57:44.358Z,16.67
2017-09-22T06:00:10.978Z,15.55
2017-09-22T06:02:37.609Z,15.40
2017-09-22T06:05:04.279Z,15.20
2017-09-22T06:07:30.890Z,14.80
2017-09-22T06:09:57.558Z,15.98
2017-09-22T06:12:24.161Z,10.57
2017-09-22T06:14:50.781Z,15.63
2017-09-22T06:17:17.419Z,13.38
2017-09-22T06:19:44.021Z,15.20
2017-09-22T06:22:10.634Z,11.55
2017-09-22T06:24:37.261Z,13.73
2017-09-22T06:27:03.930Z,14.45
2017-09-22T06:29:30.537Z,13.30
2017-09-22T06:31:57.210Z,14.38
2017-09-22T06:34:23.821Z,14.02
2017-09-22T06:36:50.433Z,15.35
2017-09-22T06:39:17.125Z,14.45
2017-09-22T06:41:43.741Z,20.10
2017-09-22T06:44:10.357Z,14.68
2017-09-22T06:46:37.042Z,13.13
2017-09-22T06:49:03.655Z,13.20
2017-09-22T06:51:30.266Z,15.00
2017-09-22T06:53:56.954Z,16.08
2017-09-22T06:56:23.566Z,19.95
2017-09-22T06:58:50.178Z,19.58
2017-09-22T07:01:16.874Z,14.10
2017-09-22T07:03:43.485Z,14.48
2017-09-22T07:06:10.096Z,16.37
2017-09-22T07:08:36.721Z,14.95
2017-09-22T07:11:03.337Z,15.20
2017-09-22T07:13:29.970Z,17.20
2017-09-22T07:15:56.598Z,15.95
2017-09-22T07:18:23.253Z,16.25
2017-09-22T07:20:49.883Z,15.98
2017-09-22T07:23:16.622Z,14.32
2017-09-22T07:25:43.268Z,17.40
2017-09-22T07:28:09.878Z,17.50
2017-09-22T07:30:36.504Z,15.45
2017-09-22T07:33:03.113Z,16.35
2017-09-22T07:35:29.728Z,15.35
2017-09-22T07:37:56.349Z,15.68
2017-09-22T07:40:22.965Z,15.40
2017-09-22T07:42:49.642Z,16.35
2017-09-22T07:45:16.318Z,18.67
2017-09-22T07:47:42.926Z,20.65
2017-09-22T07:50:09.538Z,19.12
2017-09-22T07:52:36.166Z,17.05
2017-09-22T07:55:02.790Z,16.15
2017-09-22T07:57:29.394Z,15.48
2017-09-22T07:59:56.025Z,16.98
2017-09-22T08:02:22.746Z,19.92
2017-09-22T08:04:49.354Z,16.60
2017-09-22T08:07:15.985Z,14.80
2017-09-22T08:09:42.597Z,16.17
2017-09-22T08:12:09.303Z,20.23
2017-09-22T08:14:36.040Z,16.50
2017-09-22T08:17:02.686Z,15.77
2017-09-22T08:19:29.322Z,16.20
2017-09-22T08:21:55.954Z,17.12
2017-09-22T08:24:22.566Z,21.98
2017-09-22T08:26:49.182Z,16.40
2017-09-22T08:29:15.807Z,16.50
2017-09-22T08:31:42.460Z,17.20
2017-09-22T08:34:09.069Z,16.90
2017-09-22T08:36:35.693Z,19.70
2017-09-22T08:39:02.309Z,17.73
2017-09-22T08:41:28.916Z,18.92
2017-09-22T08:43:55.656Z,20.73
2017-09-22T08:46:22.275Z,19.42
2017-09-22T08:48:48.882Z,21.50
2017-09-22T08:51:15.530Z,19.40
2017-09-22T08:53:42.174Z,18.52
2017-09-22T08:56:08.778Z,19.27
2017-09-22T08:58:35.406Z,20.60
2017-09-22T09:01:02.018Z,28.48
2017-09-22T09:03:28.627Z,20.70
2017-09-22T09:05:55.267Z,21.52
2017-09-22T09:08:21.878Z,22.85
2017-09-22T09:10:48.538Z,19.77
2017-09-22T09:13:15.165Z,24.08
2017-09-22T09:15:41.778Z,16.10
2017-09-22T09:18:08.395Z,16.08
2017-09-22T09:20:35.021Z,15.30
2017-09-22T09:23:01.738Z,21.12
2017-09-22T09:25:28.374Z,19.08
2017-09-22T09:27:55.007Z,17.83
2017-09-22T09:30:21.614Z,13.77
2017-09-22T09:32:48.229Z,15.05
2017-09-22T09:35:14.858Z,18.27
2017-09-22T09:37:41.469Z,15.88
2017-09-22T09:40:08.082Z,18.58
2017-09-22T09:42:34.750Z,17.50
2017-09-22T09:45:01.361Z,14.00
2017-09-22T09:47:27.973Z,20.00
2017-09-22T09:49:54.660Z,15.63
2017-09-22T09:52:21.270Z,16.70
2017-09-22T09:54:47.879Z,13.82
2017-09-22T09:57:14.511Z,15.60
2017-09-22T09:59:41.121Z,13.45
2017-09-22T10:02:07.751Z,15.32
2017-09-22T10:04:34.381Z,19.08
2017-09-22T10:07:01.076Z,15.63
2017-09-22T10:09:27.683Z,15.98
2017-09-22T10:11:54.314Z,16.08
2017-09-22T10:14:20.955Z,13.38
2017-09-22T10:16:47.573Z,12.88
2017-09-22T10:19:14.210Z,13.20
2017-09-22T10:21:40.817Z,15.00
2017-09-22T10:24:07.435Z,14.43
2017-09-22T10:26:34.057Z,12.25
2017-09-22T10:29:00.676Z,12.35
2017-09-22T10:31:27.282Z,12.37
2017-09-22T10:33:53.910Z,17.00
2017-09-22T10:36:20.525Z,11.80
2017-09-22T10:38:47.138Z,11.55
2017-09-22T10:41:13.766Z,15.27
2017-09-22T10:43:40.416Z,10.80
2017-09-22T10:46:07.026Z,12.93
2017-09-22T10:48:33.655Z,14.52
2017-09-22T10:51:00.270Z,15.90
2017-09-22T10:53:26.879Z,11.50
2017-09-22T10:55:53.510Z,12.05
2017-09-22T10:58:20.121Z,14.82
2017-09-22T11:00:46.787Z,12.70
2017-09-22T11:03:13.414Z,15.52
2017-09-22T11:05:40.030Z,12.40
2017-09-22T11:08:06.642Z,14.13
2017-09-22T11:10:33.274Z,13.07
2017-09-22T11:12:59.888Z,11.55
2017-09-22T11:15:26.518Z,18.48
2017-09-22T11:17:53.146Z,59.97
2017-09-22T11:20:19.753Z,31.60
2017-09-22T11:22:46.361Z,13.13
2017-09-22T11:25:13.074Z,12.10
2017-09-22T11:27:39.677Z,12.93
2017-09-22T11:30:06.290Z,12.85
2017-09-22T11:32:32.915Z,13.25
2017-09-22T11:34:59.572Z,17.08
2017-09-22T11:37:26.181Z,13.65
2017-09-22T11:39:52.815Z,15.00
2017-09-22T11:42:19.427Z,11.70
2017-09-22T11:44:46.043Z,11.40
2017-09-22T11:47:12.718Z,10.70
2017-09-22T11:49:39.359Z,11.95
2017-09-22T11:52:05.962Z,10.77
2017-09-22T11:54:32.590Z,13.07
2017-09-22T11:56:59.193Z,11.85
2017-09-22T11:59:25.807Z,11.25
2017-09-22T12:01:52.437Z,11.70
2017-09-22T12:04:19.054Z,12.05
2017-09-22T12:06:45.667Z,17.75
2017-09-22T12:09:12.294Z,13.73
2017-09-22T12:11:38.906Z,12.18
2017-09-22T12:14:05.520Z,17.02
2017-09-22T12:16:32.157Z,17.30
2017-09-22T12:18:58.824Z,14.98
2017-09-22T12:21:25.440Z,12.43
2017-09-22T12:23:52.071Z,14.02
2017-09-22T12:26:18.682Z,12.30
2017-09-22T12:28:45.290Z,12.55
2017-09-22T12:31:12.014Z,12.13
2017-09-22T12:33:38.662Z,14.00
2017-09-22T12:36:05.276Z,13.38
2017-09-22T12:38:31.934Z,9.52
2017-09-22T12:40:58.543Z,11.70
2017-09-22T12:43:25.155Z,10.00
2017-09-22T12:45:51.799Z,10.02
2017-09-22T12:48:18.494Z,10.55
2017-09-22T12:50:45.104Z,9.05
2017-09-22T12:53:11.734Z,9.50
2017-09-22T12:55:38.333Z,7.60
2017-09-22T12:58:04.948Z,9.57
2017-09-22T13:00:31.586Z,9.33
2017-09-22T13:02:58.227Z,8.70
2017-09-22T13:05:24.830Z,10.23
2017-09-22T13:07:51.447Z,8.53
2017-09-22T13:10:18.059Z,7.17
2017-09-22T13:12:44.671Z,6.30
2017-09-22T13:15:11.289Z,7.17
2017-09-22T13:17:37.888Z,6.47
2017-09-22T13:20:04.495Z,8.77
2017-09-22T13:22:31.118Z,9.37
2017-09-22T13:24:58.126Z,7.67
2017-09-22T13:27:24.743Z,7.93
2017-09-22T13:29:51.373Z,8.27
2017-09-22T13:32:18.002Z,8.57
2017-09-22T13:34:44.603Z,6.60
2017-09-22T13:37:11.221Z,9.03
2017-09-22T13:39:37.825Z,8.00
2017-09-22T13:42:04.450Z,7.90
2017-09-22T13:44:31.080Z,7.93
2017-09-22T13:46:57.695Z,7.00
2017-09-22T13:49:24.311Z,7.00
2017-09-22T13:51:50.926Z,7.20
2017-09-22T13:54:17.533Z,6.63
2017-09-22T13:56:44.248Z,8.10
2017-09-22T13:59:10.954Z,6.90
2017-09-22T14:01:37.554Z,6.43
2017-09-22T14:04:04.161Z,6.00
2017-09-22T14:06:30.781Z,5.80
2017-09-22T14:08:57.395Z,11.90
2017-09-22T14:11:24.012Z,10.83
2017-09-22T14:13:50.639Z,7.60
2017-09-22T14:16:17.241Z,6.30
2017-09-22T14:18:43.843Z,7.00
2017-09-22T14:21:10.465Z,5.90
2017-09-22T14:23:37.071Z,7.93
2017-09-22T14:26:03.687Z,6.80
2017-09-22T14:28:30.318Z,6.17
2017-09-22T14:30:56.971Z,6.57
2017-09-22T14:33:23.586Z,5.60
2017-09-22T14:35:50.208Z,5.73
2017-09-22T14:38:17.357Z,5.13
2017-09-22T14:40:43.969Z,5.50
2017-09-22T14:43:10.654Z,5.77
2017-09-22T14:45:37.329Z,6.80
2017-09-22T14:48:03.950Z,7.55
2017-09-22T14:50:30.673Z,6.30
2017-09-22T14:52:57.284Z,5.78
2017-09-22T14:55:23.890Z,6.70
2017-09-22T14:57:50.514Z,4.60
2017-09-22T15:00:17.118Z,6.12
2017-09-22T15:02:43.726Z,4.43
2017-09-22T15:05:10.345Z,5.18
2017-09-22T15:07:37.943Z,6.28
2017-09-22T15:10:05.626Z,5.12
2017-09-22T15:12:32.250Z,6.90
2017-09-22T15:14:58.857Z,4.70
2017-09-22T15:17:25.522Z,5.50
2017-09-22T15:19:52.144Z,4.90
2017-09-22T15:22:18.977Z,5.90
2017-09-22T15:24:45.596Z,5.80
2017-09-22T15:27:12.223Z,5.63
2017-09-22T15:29:39.489Z,8.50
2017-09-22T15:32:06.085Z,7.70
2017-09-22T15:34:32.718Z,11.07
2017-09-22T15:36:59.330Z,5.77
2017-09-22T15:39:26.003Z,6.37
2017-09-22T15:41:52.622Z,5.13
2017-09-22T15:44:19.225Z,7.00
2017-09-22T15:46:45.833Z,5.90
2017-09-22T15:49:12.467Z,5.60
2017-09-22T15:51:39.113Z,4.73
2017-09-22T15:54:05.720Z,5.33
2017-09-22T15:56:32.390Z,4.77
2017-09-22T15:58:58.994Z,4.63
2017-09-22T16:01:25.597Z,6.93
2017-09-22T16:03:52.307Z,4.80
2017-09-22T16:06:18.914Z,6.43
2017-09-22T16:08:45.518Z,4.47
2017-09-22T16:11:12.147Z,5.27
2017-09-22T16:13:38.808Z,4.83
2017-09-22T16:16:05.410Z,5.00
2017-09-22T16:18:32.030Z,5.03
2017-09-22T16:20:58.629Z,4.13
2017-09-22T16:23:25.225Z,4.37
2017-09-22T16:25:51.846Z,4.70
2017-09-22T16:28:18.522Z,5.77
2017-09-22T16:30:45.123Z,6.93
2017-09-22T16:33:11.745Z,4.17
2017-09-22T16:35:38.362Z,5.68
2017-09-22T16:38:05.082Z,8.95
2017-09-22T16:40:31.714Z,7.25
2017-09-22T16:42:58.317Z,7.40
2017-09-22T16:45:24.999Z,6.85
2017-09-22T16:47:51.622Z,8.15
2017-09-22T16:50:18.269Z,7.00
2017-09-22T16:52:44.909Z,8.05
2017-09-22T16:55:11.553Z,7.82
2017-09-22T16:57:38.192Z,9.07
2017-09-22T17:00:04.834Z,6.20
2017-09-22T17:02:31.457Z,6.70
2017-09-22T17:04:58.062Z,5.80
2017-09-22T17:07:24.667Z,6.32
2017-09-22T17:09:51.287Z,6.43
2017-09-22T17:12:17.894Z,7.85
2017-09-22T17:14:44.499Z,7.07
2017-09-22T17:17:11.200Z,8.15
2017-09-22T17:19:37.804Z,8.85
2017-09-22T17:22:04.402Z,8.52
2017-09-22T17:24:31.028Z,11.45
2017-09-22T17:26:57.627Z,9.75
2017-09-22T17:29:24.234Z,9.20
2017-09-22T17:31:50.858Z,10.05
2017-09-22T17:34:17.470Z,10.05
2017-09-22T17:36:44.069Z,9.15
2017-09-22T17:39:10.694Z,9.88
2017-09-22T17:41:40.325Z,10.65
2017-09-22T17:44:07.030Z,8.95
2017-09-22T17:46:33.762Z,10.65
2017-09-22T17:49:00.416Z,11.10
2017-09-22T17:51:27.059Z,11.20
2017-09-22T17:53:53.686Z,10.70
2017-09-22T17:56:20.330Z,12.98
2017-09-22T17:58:47.338Z,13.00
2017-09-22T18:01:13.970Z,9.45
2017-09-22T18:03:40.617Z,9.82
2017-09-22T18:06:07.844Z,8.38
2017-09-22T18:08:34.550Z,8.73
2017-09-22T18:11:01.211Z,8.50
2017-09-22T18:13:28.197Z,10.02
2017-09-22T18:15:54.825Z,13.45
2017-09-22T18:18:21.444Z,22.00
2017-09-22T18:20:48.106Z,19.67
2017-09-22T18:23:14.741Z,14.45
2017-09-22T18:25:41.370Z,14.10
2017-09-22T18:28:08.005Z,13.30
2017-09-22T18:30:34.658Z,10.68
2017-09-22T18:33:01.371Z,12.60
2017-09-22T18:35:28.011Z,14.48
2017-09-22T18:37:54.637Z,18.23
2017-09-22T18:40:21.254Z,12.70
2017-09-22T18:42:47.866Z,13.93
2017-09-22T18:45:14.504Z,14.73
2017-09-22T18:47:41.122Z,13.60
2017-09-22T18:50:07.729Z,13.07
2017-09-22T18:52:34.406Z,13.32
2017-09-22T18:55:01.022Z,12.37
2017-09-22T18:57:27.642Z,15.30
2017-09-22T18:59:54.269Z,12.82
2017-09-22T19:02:20.882Z,21.83
2017-09-22T19:04:47.502Z,19.17
2017-09-22T19:07:14.139Z,15.70
2017-09-22T19:09:40.754Z,14.00
2017-09-22T19:12:07.370Z,13.27
2017-09-22T19:14:34.003Z,12.73
2017-09-22T19:17:00.619Z,11.35
2017-09-22T19:19:27.310Z,20.75
2017-09-22T19:21:53.957Z,20.95
2017-09-22T19:24:20.697Z,79.53
2017-09-22T19:26:47.307Z,17.55
2017-09-22T19:29:13.938Z,16.42
2017-09-22T19:31:40.564Z,17.98
2017-09-22T19:34:07.175Z,29.20
2017-09-22T19:36:33.805Z,27.30
2017-09-22T19:39:00.414Z,33.88
2017-09-22T19:41:27.029Z,37.22
2017-09-22T19:43:53.663Z,25.35
2017-09-22T19:46:20.337Z,20.50
2017-09-22T19:48:46.983Z,17.90
2017-09-22T19:51:13.614Z,21.90
2017-09-22T19:53:40.247Z,22.45
2017-09-22T19:56:06.857Z,32.15
2017-09-22T19:58:33.486Z,19.77
2017-09-22T20:01:01.135Z,20.75
2017-09-22T20:03:27.995Z,23.00
2017-09-22T20:05:54.775Z,16.70
2017-09-22T20:08:21.555Z,13.90
2017-09-22T20:10:48.220Z,15.02
2017-09-22T20:13:14.853Z,14.23
2017-09-22T20:15:41.470Z,16.65
2017-09-22T20:18:08.085Z,21.48
2017-09-22T20:20:34.742Z,15.88
2017-09-22T20:23:01.350Z,15.00
2017-09-22T20:25:28.063Z,14.32
2017-09-22T20:27:55.558Z,14.30
2017-09-22T20:30:22.181Z,14.87
2017-09-22T20:32:48.785Z,13.18
2017-09-22T20:35:15.415Z,14.73
2017-09-22T20:37:42.021Z,13.23
2017-09-22T20:40:08.631Z,13.52
2017-09-22T20:42:35.267Z,17.48
2017-09-22T20:45:01.950Z,16.27
2017-09-22T20:47:28.558Z,11.50
2017-09-22T20:49:55.189Z,13.62
2017-09-22T20:52:21.865Z,12.27
2017-09-22T20:54:48.481Z,12.57
2017-09-22T20:57:15.110Z,13.38
2017-09-22T20:59:41.714Z,11.50
2017-09-22T21:02:08.327Z,14.15
2017-09-22T21:04:34.954Z,10.80
2017-09-22T21:07:01.563Z,11.80
2017-09-22T21:09:28.239Z,13.18
2017-09-22T21:11:54.976Z,14.18
2017-09-22T21:14:21.619Z,17.37
2017-09-22T21:16:48.260Z,11.27
2017-09-22T21:19:14.896Z,11.57
2017-09-22T21:21:41.498Z,11.10
2017-09-22T21:24:08.101Z,9.48
2017-09-22T21:26:34.809Z,9.70
2017-09-22T21:29:01.413Z,9.98
2017-09-22T21:31:28.026Z,17.08
2017-09-22T21:33:54.650Z,12.88
2017-09-22T21:36:21.374Z,12.75
2017-09-22T21:38:47.982Z,15.00
2017-09-22T21:41:14.610Z,15.30
2017-09-22T21:43:41.218Z,18.55
2017-09-22T21:46:07.826Z,16.35
2017-09-22T21:48:34.454Z,16.45
2017-09-22T21:51:01.102Z,18.98
2017-09-22T21:53:27.712Z,14.50
2017-09-22T21:55:54.342Z,13.77
2017-09-22T21:58:20.949Z,16.60
2017-09-22T22:00:47.574Z,20.35
2017-09-22T22:03:20.018Z,13.60
2017-09-22T22:05:46.637Z,14.10
2017-09-22T22:08:13.250Z,15.13
2017-09-22T22:10:39.874Z,12.80
2017-09-22T22:13:06.486Z,14.70
2017-09-22T22:15:33.105Z,14.75
2017-09-22T22:17:59.734Z,11.95
2017-09-22T22:20:26.343Z,14.87
2017-09-22T22:22:53.058Z,14.25
2017-09-22T22:25:19.689Z,16.37
2017-09-22T22:27:46.302Z,21.05
2017-09-22T22:30:12.927Z,14.80
2017-09-22T22:32:39.598Z,14.30
2017-09-22T22:35:06.213Z,17.12
2017-09-22T22:37:32.878Z,13.15
2017-09-22T22:39:59.617Z,13.05
2017-09-22T22:42:26.258Z,12.95
2017-09-22T22:44:52.894Z,11.15
2017-09-22T22:47:19.517Z,12.20
2017-09-22T22:49:46.135Z,11.65
2017-09-22T22:52:12.811Z,11.82
2017-09-22T22:54:39.445Z,12.02
2017-09-22T22:57:06.058Z,18.73
2017-09-22T22:59:32.675Z,11.70
2017-09-22T23:01:59.302Z,15.20
2017-09-22T23:04:25.919Z,11.73
2017-09-22T23:06:52.525Z,13.05
2017-09-22T23:09:19.156Z,13.15
2017-09-22T23:11:45.766Z,22.13
2017-09-22T23:14:12.378Z,16.20
2017-09-22T23:16:39.145Z,15.35
2017-09-22T23:19:05.749Z,14.95
2017-09-22T23:21:32.362Z,15.68
2017-09-22T23:23:58.990Z,15.48
2017-09-22T23:26:25.597Z,15.52
2017-09-22T23:28:52.212Z,12.98
2017-09-22T23:31:18.832Z,19.15
2017-09-22T23:33:45.442Z,16.15
2017-09-22T23:36:12.054Z,18.85
2017-09-22T23:38:38.677Z,17.55
2017-09-22T23:41:05.390Z,17.35
2017-09-22T23:43:32.003Z,14.57
2017-09-22T23:45:58.630Z,15.88
2017-09-22T23:48:25.310Z,13.20
2017-09-22T23:50:51.951Z,17.35
2017-09-22T23:53:18.558Z,11.60
2017-09-22T23:55:45.174Z,14.07
2017-09-22T23:58:11.778Z,11.77
